createdAt,value
2023-03-06T00:00:44.571Z,301.00
2023-03-06T00:04:44.653Z,309.00
2023-03-06T00:08:44.777Z,310.00
2023-03-06T00:12:44.893Z,311.00
2023-03-06T00:16:45.043Z,311.00
2023-03-06T00:20:45.187Z,311.00
2023-03-06T00:24:45.311Z,315.00
2023-03-06T00:28:45.425Z,311.00
2023-03-06T00:32:45.588Z,312.00
2023-03-06T00:36:45.695Z,308.00
2023-03-06T00:40:45.816Z,307.00
2023-03-06T00:44:45.958Z,309.00
2023-03-06T00:48:46.113Z,311.00
2023-03-06T00:52:46.259Z,311.00
2023-03-06T00:56:46.438Z,309.00
2023-03-06T01:00:46.686Z,309.00
2023-03-06T01:04:46.692Z,305.00
2023-03-06T01:08:46.864Z,307.00
2023-03-06T01:12:47.049Z,302.00
2023-03-06T01:16:47.249Z,309.00
2023-03-06T01:20:47.337Z,312.00
2023-03-06T01:24:47.560Z,307.00
2023-03-06T01:28:47.785Z,308.00
2023-03-06T01:32:47.927Z,307.00
2023-03-06T01:36:48.057Z,309.00
2023-03-06T01:40:48.281Z,305.00
2023-03-06T01:44:48.452Z,304.00
2023-03-06T01:48:48.630Z,302.00
2023-03-06T01:52:48.811Z,305.00
2023-03-06T01:56:48.984Z,305.00
2023-03-06T02:00:49.302Z,301.00
2023-03-06T02:04:49.364Z,303.00
2023-03-06T02:08:49.516Z,303.00
2023-03-06T02:12:49.719Z,305.00
2023-03-06T02:16:49.914Z,303.00
2023-03-06T02:20:50.081Z,301.00
2023-03-06T02:24:50.259Z,305.00
2023-03-06T02:28:50.485Z,305.00
2023-03-06T02:32:50.674Z,298.00
2023-03-06T02:36:50.789Z,298.00
2023-03-06T02:40:50.981Z,300.00
2023-03-06T02:44:51.111Z,301.00
2023-03-06T02:48:51.312Z,298.00
2023-03-06T02:52:51.509Z,300.00
2023-03-06T02:56:51.666Z,304.00
2023-03-06T03:00:51.929Z,302.00
2023-03-06T03:04:52.148Z,299.00
2023-03-06T03:08:52.227Z,297.00
2023-03-06T03:12:52.347Z,297.00
2023-03-06T03:16:52.472Z,302.00
2023-03-06T03:20:52.652Z,304.00
2023-03-06T03:24:52.996Z,303.00
2023-03-06T03:28:53.064Z,300.00
2023-03-06T03:32:53.265Z,297.00
2023-03-06T03:36:53.427Z,297.00
2023-03-06T03:40:53.612Z,298.00
2023-03-06T03:44:53.764Z,302.00
2023-03-06T03:48:53.914Z,299.00
2023-03-06T03:52:54.086Z,298.00
2023-03-06T03:56:54.255Z,298.00
2023-03-06T04:00:54.590Z,300.00
2023-03-06T04:04:54.721Z,304.00
2023-03-06T04:08:54.706Z,299.00
2023-03-06T04:12:54.882Z,298.00
2023-03-06T04:16:55.053Z,300.00
2023-03-06T04:20:55.222Z,298.00
2023-03-06T04:24:55.386Z,297.00
2023-03-06T04:28:55.548Z,296.00
2023-03-06T04:32:55.702Z,299.00
2023-03-06T04:36:55.816Z,298.00
2023-03-06T04:40:55.998Z,301.00
2023-03-06T04:44:56.299Z,298.00
2023-03-06T04:48:56.364Z,301.00
2023-03-06T04:52:56.599Z,298.00
2023-03-06T04:56:56.737Z,297.00
2023-03-06T05:00:56.946Z,298.00
2023-03-06T05:04:57.111Z,301.00
2023-03-06T05:08:57.249Z,311.00
2023-03-06T05:12:57.242Z,319.00
2023-03-06T05:16:57.179Z,332.00
2023-03-06T05:20:57.168Z,336.00
2023-03-06T05:24:57.125Z,345.00
2023-03-06T05:28:57.053Z,349.00
2023-03-06T05:32:57.058Z,353.00
2023-03-06T05:36:56.986Z,351.00
2023-03-06T05:40:56.961Z,348.00
2023-03-06T05:44:56.899Z,341.00
2023-03-06T05:48:57.142Z,340.00
2023-03-06T05:52:57.076Z,341.00
2023-03-06T05:56:57.072Z,341.00
2023-03-06T06:00:56.989Z,347.00
2023-03-06T06:04:56.956Z,345.00
2023-03-06T06:08:56.968Z,348.00
2023-03-06T06:12:56.931Z,351.00
2023-03-06T06:16:56.859Z,350.00
2023-03-06T06:20:56.848Z,349.00
2023-03-06T06:24:56.720Z,351.00
2023-03-06T06:28:59.050Z,348.00
2023-03-06T06:32:56.850Z,357.00
2023-03-06T06:36:56.675Z,501.00
2023-03-06T06:41:29.177Z,576.00
2023-03-06T06:44:57.551Z,986.00
2023-03-06T06:48:56.549Z,743.00
2023-03-06T06:52:56.566Z,757.00
2023-03-06T06:56:56.579Z,772.00
2023-03-06T07:00:56.464Z,794.00
2023-03-06T07:05:04.305Z,819.00
2023-03-06T07:08:57.572Z,844.00
2023-03-06T07:12:56.416Z,862.00
2023-03-06T07:16:56.296Z,881.00
2023-03-06T07:20:56.296Z,908.00
2023-03-06T07:24:56.204Z,919.00
2023-03-06T07:28:56.207Z,927.00
2023-03-06T07:32:56.425Z,926.00
2023-03-06T07:36:56.367Z,990.00
2023-03-06T07:40:56.361Z,993.00
2023-03-06T07:44:56.364Z,952.00
2023-03-06T07:48:56.253Z,950.00
2023-03-06T07:52:56.311Z,943.00
2023-03-06T07:56:56.215Z,966.00
2023-03-06T08:00:56.215Z,994.00
2023-03-06T08:04:56.158Z,988.00
2023-03-06T08:08:56.168Z,1020.00
2023-03-06T08:12:56.058Z,1026.00
2023-03-06T08:16:56.010Z,1040.00
2023-03-06T08:20:56.004Z,1033.00
2023-03-06T08:24:55.891Z,1040.00
2023-03-06T08:28:55.952Z,1024.00
2023-03-06T08:32:56.261Z,1122.00
2023-03-06T08:36:55.841Z,682.00
2023-03-06T08:40:55.824Z,654.00
2023-03-06T08:44:55.758Z,706.00
2023-03-06T08:48:55.825Z,713.00
2023-03-06T08:52:55.951Z,713.00
2023-03-06T08:56:56.172Z,714.00
2023-03-06T09:00:56.345Z,715.00
2023-03-06T09:04:56.364Z,712.00
2023-03-06T09:08:56.467Z,706.00
2023-03-06T09:12:56.603Z,712.00
2023-03-06T09:16:56.779Z,726.00
2023-03-06T09:20:56.775Z,737.00
2023-03-06T09:24:56.821Z,748.00
2023-03-06T09:28:56.884Z,758.00
2023-03-06T09:32:56.948Z,673.00
2023-03-06T09:36:57.657Z,590.00
2023-03-06T09:40:57.268Z,526.00
2023-03-06T09:44:57.323Z,567.00
2023-03-06T09:48:59.607Z,600.00
2023-03-06T09:53:00.103Z,622.00
2023-03-06T09:56:57.592Z,635.00
2023-03-06T10:00:57.526Z,639.00
2023-03-06T10:04:57.477Z,644.00
2023-03-06T10:08:59.554Z,668.00
2023-03-06T10:12:57.571Z,678.00
2023-03-06T10:16:57.666Z,688.00
2023-03-06T10:21:02.553Z,704.00
2023-03-06T10:24:58.858Z,725.00
2023-03-06T10:28:57.902Z,736.00
2023-03-06T10:32:58.048Z,757.00
2023-03-06T10:36:58.209Z,799.00
2023-03-06T10:40:58.357Z,902.00
2023-03-06T10:44:58.243Z,940.00
2023-03-06T10:48:58.282Z,949.00
2023-03-06T10:52:58.319Z,931.00
2023-03-06T10:56:58.431Z,909.00
2023-03-06T11:00:58.567Z,903.00
2023-03-06T11:04:58.545Z,911.00
2023-03-06T11:09:06.800Z,939.00
2023-03-06T11:12:58.485Z,938.00
2023-03-06T11:16:58.711Z,953.00
2023-03-06T11:20:58.896Z,951.00
2023-03-06T11:24:59.069Z,935.00
2023-03-06T11:28:59.064Z,819.00
2023-03-06T11:32:58.977Z,773.00
2023-03-06T11:36:58.932Z,730.00
2023-03-06T11:40:58.966Z,685.00
2023-03-06T11:44:59.923Z,644.00
2023-03-06T11:48:58.809Z,617.00
2023-03-06T11:52:58.911Z,591.00
2023-03-06T11:56:58.763Z,569.00
2023-03-06T12:00:58.861Z,545.00
2023-03-06T12:04:59.139Z,523.00
2023-03-06T12:08:59.250Z,502.00
2023-03-06T12:12:59.255Z,497.00
2023-03-06T12:16:59.206Z,494.00
2023-03-06T12:20:59.150Z,501.00
2023-03-06T12:24:59.119Z,499.00
2023-03-06T12:28:59.133Z,496.00
2023-03-06T12:32:59.102Z,494.00
2023-03-06T12:36:59.038Z,495.00
2023-03-06T12:40:58.981Z,491.00
2023-03-06T12:44:58.958Z,492.00
2023-03-06T12:48:58.905Z,492.00
2023-03-06T12:52:59.036Z,490.00
2023-03-06T12:56:59.166Z,488.00
2023-03-06T13:01:04.305Z,488.00
2023-03-06T13:05:00.397Z,501.00
2023-03-06T13:08:59.287Z,546.00
2023-03-06T13:12:59.321Z,582.00
2023-03-06T13:16:59.681Z,608.00
2023-03-06T13:20:59.853Z,610.00
2023-03-06T13:25:03.608Z,610.00
2023-03-06T13:29:01.020Z,599.00
2023-03-06T13:32:59.866Z,597.00
2023-03-06T13:37:00.062Z,593.00
2023-03-06T13:41:00.285Z,585.00
2023-03-06T13:45:00.416Z,572.00
2023-03-06T13:49:00.568Z,573.00
2023-03-06T13:53:00.773Z,577.00
2023-03-06T13:57:00.910Z,574.00
2023-03-06T14:01:01.207Z,586.00
2023-03-06T14:05:01.212Z,582.00
2023-03-06T14:09:01.388Z,592.00
2023-03-06T14:13:01.417Z,598.00
2023-03-06T14:17:03.553Z,597.00
2023-03-06T14:21:01.473Z,592.00
2023-03-06T14:25:01.431Z,585.00
2023-03-06T14:29:01.454Z,596.00
2023-03-06T14:33:01.395Z,586.00
2023-03-06T14:37:01.391Z,584.00
2023-03-06T14:41:01.364Z,588.00
2023-03-06T14:45:01.267Z,604.00
2023-03-06T14:49:01.294Z,593.00
2023-03-06T14:53:01.271Z,558.00
2023-03-06T14:57:01.156Z,535.00
2023-03-06T15:01:01.452Z,516.00
2023-03-06T15:05:01.104Z,499.00
2023-03-06T15:09:01.085Z,486.00
2023-03-06T15:13:01.065Z,469.00
2023-03-06T15:17:00.988Z,462.00
2023-03-06T15:21:00.995Z,451.00
2023-03-06T15:25:00.892Z,445.00
2023-03-06T15:29:09.073Z,447.00
2023-03-06T15:33:01.872Z,447.00
2023-03-06T15:37:00.797Z,442.00
2023-03-06T15:41:01.412Z,439.00
2023-03-06T15:45:01.011Z,445.00
2023-03-06T15:49:02.780Z,446.00
2023-03-06T15:53:01.293Z,447.00
2023-03-06T15:57:01.530Z,444.00
2023-03-06T16:01:01.516Z,441.00
2023-03-06T16:05:01.479Z,436.00
2023-03-06T16:09:01.920Z,436.00
2023-03-06T16:13:01.445Z,441.00
2023-03-06T16:17:01.389Z,440.00
2023-03-06T16:21:01.380Z,437.00
2023-03-06T16:25:01.305Z,434.00
2023-03-06T16:29:01.275Z,437.00
2023-03-06T16:33:01.258Z,435.00
2023-03-06T16:37:01.213Z,433.00
2023-03-06T16:41:01.133Z,427.00
2023-03-06T16:45:01.168Z,427.00
2023-03-06T16:49:01.106Z,429.00
2023-03-06T16:53:01.096Z,427.00
2023-03-06T16:57:01.002Z,426.00
2023-03-06T17:01:01.945Z,424.00
2023-03-06T17:05:01.090Z,431.00
2023-03-06T17:09:01.191Z,429.00
2023-03-06T17:13:01.247Z,426.00
2023-03-06T17:17:01.352Z,423.00
2023-03-06T17:21:01.408Z,429.00
2023-03-06T17:25:01.477Z,428.00
2023-03-06T17:29:01.545Z,421.00
2023-03-06T17:33:01.616Z,419.00
2023-03-06T17:37:01.812Z,419.00
2023-03-06T17:41:01.817Z,419.00
2023-03-06T17:45:01.937Z,417.00
2023-03-06T17:49:02.014Z,419.00
2023-03-06T17:53:02.073Z,424.00
2023-03-06T17:57:02.194Z,419.00
2023-03-06T18:01:02.312Z,415.00
2023-03-06T18:05:02.507Z,412.00
2023-03-06T18:09:02.555Z,412.00
2023-03-06T18:13:02.695Z,412.00
2023-03-06T18:17:02.986Z,410.00
2023-03-06T18:21:03.005Z,411.00
2023-03-06T18:25:03.189Z,409.00
2023-03-06T18:29:03.459Z,404.00
2023-03-06T18:33:03.552Z,403.00
2023-03-06T18:37:03.827Z,403.00
2023-03-06T18:41:03.917Z,415.00
2023-03-06T18:45:04.437Z,420.00
2023-03-06T18:49:04.371Z,410.00
2023-03-06T18:53:04.557Z,402.00
2023-03-06T18:57:04.486Z,411.00
2023-03-06T19:01:04.532Z,406.00
2023-03-06T19:05:04.422Z,400.00
2023-03-06T19:09:04.429Z,398.00
2023-03-06T19:13:04.373Z,398.00
2023-03-06T19:17:04.380Z,396.00
2023-03-06T19:21:04.329Z,391.00
2023-03-06T19:25:04.271Z,395.00
2023-03-06T19:29:04.213Z,385.00
2023-03-06T19:33:04.144Z,386.00
2023-03-06T19:37:04.225Z,385.00
2023-03-06T19:41:04.370Z,388.00
2023-03-06T19:45:04.641Z,384.00
2023-03-06T19:49:04.890Z,382.00
2023-03-06T19:53:04.993Z,387.00
2023-03-06T19:57:05.145Z,386.00
2023-03-06T20:01:05.284Z,381.00
2023-03-06T20:05:06.925Z,384.00
2023-03-06T20:09:05.317Z,388.00
2023-03-06T20:13:05.302Z,392.00
2023-03-06T20:17:05.226Z,389.00
2023-03-06T20:21:05.208Z,389.00
2023-03-06T20:25:05.176Z,391.00
2023-03-06T20:29:05.143Z,391.00
2023-03-06T20:33:05.064Z,385.00
2023-03-06T20:37:05.049Z,385.00
2023-03-06T20:41:05.016Z,381.00
2023-03-06T20:45:04.997Z,381.00
2023-03-06T20:49:04.925Z,381.00
2023-03-06T20:53:04.933Z,379.00
2023-03-06T20:57:04.863Z,378.00
2023-03-06T21:01:04.838Z,379.00
2023-03-06T21:05:04.804Z,380.00
2023-03-06T21:09:04.763Z,383.00
2023-03-06T21:13:04.724Z,385.00
2023-03-06T21:17:04.747Z,387.00
2023-03-06T21:21:04.625Z,384.00
2023-03-06T21:25:04.615Z,384.00
2023-03-06T21:29:04.591Z,384.00
2023-03-06T21:33:04.554Z,383.00
2023-03-06T21:37:04.547Z,382.00
2023-03-06T21:41:04.454Z,380.00
2023-03-06T21:45:04.411Z,378.00
2023-03-06T21:49:04.416Z,381.00
2023-03-06T21:53:04.443Z,386.00
2023-03-06T21:57:04.306Z,385.00
2023-03-06T22:01:04.323Z,387.00
2023-03-06T22:05:04.245Z,384.00
2023-03-06T22:09:04.240Z,380.00
2023-03-06T22:13:04.153Z,381.00
2023-03-06T22:17:04.587Z,385.00
2023-03-06T22:21:04.129Z,383.00
2023-03-06T22:25:04.185Z,382.00
2023-03-06T22:29:04.005Z,381.00
2023-03-06T22:33:04.006Z,383.00
2023-03-06T22:37:03.994Z,382.00
2023-03-06T22:41:03.938Z,384.00
2023-03-06T22:45:04.007Z,379.00
2023-03-06T22:49:04.107Z,384.00
2023-03-06T22:53:04.143Z,380.00
2023-03-06T22:57:04.311Z,373.00
2023-03-06T23:01:04.363Z,373.00
2023-03-06T23:05:04.435Z,370.00
2023-03-06T23:09:04.571Z,370.00
2023-03-06T23:13:04.677Z,372.00
2023-03-06T23:17:04.847Z,373.00
2023-03-06T23:21:04.899Z,374.00
2023-03-06T23:25:04.982Z,373.00
2023-03-06T23:29:05.106Z,373.00
2023-03-06T23:33:05.233Z,372.00
2023-03-06T23:37:05.389Z,368.00
2023-03-06T23:41:05.504Z,372.00
2023-03-06T23:45:05.748Z,373.00
2023-03-06T23:49:05.836Z,372.00
2023-03-06T23:53:05.936Z,377.00
2023-03-06T23:57:06.050Z,376.00
